Time;durP1;ratioP1;P1;durP2;ratioP2;P2;SDS_P1;SDS_P2;PMS_P1;PMS_P2;Temp;Humidity;BMP_temperature;BMP_pressure;BME280_temperature;BME280_humidity;BME280_pressure;Samples;Min_cycle;Max_cycle;Signal;HPM_P1;HPM_P2
2022/10/07 00:01:45;;;;;;;10.75;6.05;;;;;;;15.31;62.57;101141.66;7632621;32;39382;-72
2022/10/07 00:06:12;;;;;;;13.05;5.60;;;;;;;15.06;64.21;101139.69;7632420;32;40088;-72
2022/10/07 00:10:28;;;;;;;9.77;5.78;;;;;;;14.84;64.63;101138.75;7632812;32;37726;-73
2022/10/07 00:14:44;;;;;;;12.43;5.65;;;;;;;15.06;63.05;101140.50;7632277;32;36993;-73
2022/10/07 00:19:04;;;;;;;8.63;5.18;;;;;;;14.97;63.15;101139.34;7632322;32;39095;-72
2022/10/07 00:23:20;;;;;;;11.32;6.18;;;;;;;14.84;63.74;101144.22;7632593;32;40011;-73
2022/10/07 00:27:36;;;;;;;12.60;5.60;;;;;;;15.03;63.83;101141.84;7632150;32;38541;-72
2022/10/07 00:31:53;;;;;;;9.15;5.70;;;;;;;15.04;63.26;101139.94;7632116;32;37709;-73
2022/10/07 00:36:26;;;;;;;11.05;6.20;;;;;;;14.93;62.84;101141.78;7630270;32;40333;-73
2022/10/07 00:40:42;;;;;;;11.52;5.40;;;;;;;14.62;64.89;101141.66;7631668;32;39636;-73
2022/10/07 00:44:58;;;;;;;11.38;5.47;;;;;;;14.68;64.63;101138.94;7631579;32;38741;-73
2022/10/07 00:49:14;;;;;;;15.93;6.25;;;;;;;14.76;63.42;101136.53;7631067;32;37734;-73
2022/10/07 00:53:33;;;;;;;11.70;6.10;;;;;;;14.63;63.44;101135.06;7634084;32;39832;-73
2022/10/07 00:57:51;;;;;;;10.57;5.65;;;;;;;14.72;63.38;101121.66;7615535;32;40003;-73
2022/10/07 01:02:07;;;;;;;9.07;5.25;;;;;;;14.23;64.98;101117.25;7639136;32;38016;-73
2022/10/07 01:06:24;;;;;;;12.52;5.65;;;;;;;14.41;64.34;101112.41;7619819;32;36721;-72
2022/10/07 01:10:56;;;;;;;8.77;5.22;;;;;;;14.25;64.34;101114.25;7637260;32;40050;-72
2022/10/07 01:15:36;;;;;;;10.52;5.97;;;;;;;14.65;63.24;101107.38;7641619;32;39987;-72
2022/10/07 01:20:11;;;;;;;9.57;5.85;;;;;;;14.49;63.20;101103.69;7641206;32;37598;-73
2022/10/07 01:24:41;;;;;;;10.52;5.93;;;;;;;14.69;62.43;101091.19;7631740;32;38137;-72
2022/10/07 01:29:03;;;;;;;13.65;5.95;;;;;;;14.52;63.16;101103.16;7631471;32;39309;-73
2022/10/07 01:33:26;;;;;;;16.48;6.37;;;;;;;14.51;64.00;101095.19;7642350;32;39999;-73
2022/10/07 01:37:49;;;;;;;12.60;6.20;;;;;;;14.56;64.28;101093.28;7641648;32;37589;-72
2022/10/07 01:42:06;;;;;;;11.32;6.35;;;;;;;14.57;64.94;101094.13;7631508;32;37103;-72
2022/10/07 01:46:24;;;;;;;10.88;6.62;;;;;;;14.70;64.28;101090.09;7631106;32;40148;-73
2022/10/07 01:50:41;;;;;;;13.57;6.65;;;;;;;14.77;63.97;101087.94;7631266;32;39951;-72
2022/10/07 01:55:27;;;;;;;10.73;7.20;;;;;;;14.69;64.82;101086.50;7629430;32;38077;-71
2022/10/07 01:59:52;;;;;;;13.77;6.47;;;;;;;14.58;65.78;101087.53;7639784;32;37988;-72
2022/10/07 02:04:21;;;;;;;14.23;7.18;;;;;;;14.69;65.21;101085.69;7630162;32;39266;-73
2022/10/07 02:08:45;;;;;;;12.10;6.45;;;;;;;14.40;65.76;101089.66;7630459;32;40165;-72
2022/10/07 02:13:23;;;;;;;12.80;6.87;;;;;;;14.55;65.45;101080.66;7641236;32;38045;-72
2022/10/07 02:17:44;;;;;;;13.27;6.80;;;;;;;14.49;65.68;101086.38;7633009;32;37892;-72
2022/10/07 02:22:02;;;;;;;14.07;6.78;;;;;;;14.56;65.17;101076.84;7641270;32;39225;-72
2022/10/07 02:26:20;;;;;;;12.05;6.82;;;;;;;14.47;65.54;101086.69;7630240;32;40406;-73
2022/10/07 02:30:37;;;;;;;12.60;6.87;;;;;;;14.52;65.40;101086.69;7630242;32;37726;-72
2022/10/07 02:35:03;;;;;;;13.88;6.87;;;;;;;14.43;65.54;101082.78;7629963;32;37062;-72
2022/10/07 02:39:20;;;;;;;13.60;6.75;;;;;;;14.70;64.43;101082.69;7617046;32;39410;-73
2022/10/07 02:43:42;;;;;;;14.27;7.65;;;;;;;14.71;64.24;101084.34;7629776;32;40874;-72
2022/10/07 02:48:23;;;;;;;15.43;6.90;;;;;;;14.82;64.02;101087.97;7623460;32;38014;-73
2022/10/07 02:52:41;;;;;;;11.73;7.15;;;;;;;14.57;65.08;101089.47;7638842;32;37280;-72
2022/10/07 02:56:59;;;;;;;11.52;6.85;;;;;;;14.98;63.77;101092.38;7640278;32;39356;-73
2022/10/07 03:01:19;;;;;;;19.90;7.93;;;;;;;14.73;64.50;101092.28;7640330;32;40000;-72
2022/10/07 03:05:35;;;;;;;11.23;5.95;;;;;;;14.60;64.90;101077.97;7638849;32;38882;-73
2022/10/07 03:09:52;;;;;;;11.52;6.80;;;;;;;14.63;64.55;101087.59;7644424;32;37862;-72
2022/10/07 03:14:09;;;;;;;11.18;5.95;;;;;;;14.33;64.92;101075.34;7642759;32;39125;-72
2022/10/07 03:18:26;;;;;;;11.32;6.37;;;;;;;14.13;65.44;101076.03;7631066;32;40859;-73
2022/10/07 03:22:42;;;;;;;11.40;6.28;;;;;;;14.18;64.83;101072.50;7633109;32;37939;-72
2022/10/07 03:26:58;;;;;;;11.98;6.62;;;;;;;14.12;64.59;101074.37;7633090;32;37775;-73
2022/10/07 03:31:14;;;;;;;13.60;7.10;;;;;;;14.15;63.81;101071.09;7633036;32;39859;-73
2022/10/07 03:35:30;;;;;;;15.70;7.32;;;;;;;14.12;64.76;101074.37;7632957;32;40592;-73
2022/10/07 03:39:46;;;;;;;12.05;7.05;;;;;;;14.25;64.76;101068.44;7632922;32;38048;-73
2022/10/07 03:44:02;;;;;;;16.62;7.37;;;;;;;13.84;66.39;101067.34;7632936;32;37824;-73
2022/10/07 03:48:19;;;;;;;15.38;7.60;;;;;;;14.10;65.12;101071.06;7632891;32;39344;-73
2022/10/07 03:52:35;;;;;;;19.83;7.53;;;;;;;14.43;66.28;101071.81;7632787;32;40787;-74
2022/10/07 03:56:51;;;;;;;12.20;7.55;;;;;;;14.31;65.60;101079.44;7632610;32;37920;-73
2022/10/07 04:01:13;;;;;;;14.15;7.35;;;;;;;14.31;65.97;101077.50;7632610;32;37097;-73
2022/10/07 04:05:30;;;;;;;13.27;7.20;;;;;;;14.01;66.72;101068.00;7632756;32;40109;-72
2022/10/07 04:09:46;;;;;;;13.57;6.90;;;;;;;14.18;65.55;101070.59;7632596;32;39977;-72
2022/10/07 04:14:02;;;;;;;11.52;6.75;;;;;;;13.89;65.56;101067.37;7632412;32;38036;-73
2022/10/07 04:18:18;;;;;;;13.13;6.68;;;;;;;13.94;65.17;101058.38;7631522;32;38194;-73
2022/10/07 04:22:35;;;;;;;23.35;7.65;;;;;;;13.85;65.41;101052.56;7632580;32;39740;-74
2022/10/07 04:26:51;;;;;;;18.20;7.72;;;;;;;14.31;64.20;101057.50;7632504;32;40828;-72
2022/10/07 04:31:08;;;;;;;16.20;7.50;;;;;;;14.39;64.84;101059.75;7632413;32;38026;-73
2022/10/07 04:35:24;;;;;;;13.43;7.25;;;;;;;14.32;65.29;101056.41;7632426;32;37069;-73
2022/10/07 04:39:40;;;;;;;15.63;7.60;;;;;;;14.41;64.89;101057.53;7632409;32;39276;-73
2022/10/07 04:44:15;;;;;;;14.15;7.57;;;;;;;14.05;65.71;101054.59;7632357;32;40178;-72
2022/10/07 04:48:32;;;;;;;15.95;7.78;;;;;;;14.03;65.85;101056.78;7632151;32;38179;-72
2022/10/07 04:52:48;;;;;;;13.57;7.78;;;;;;;14.15;65.19;101054.66;7632277;32;37231;-73
2022/10/07 04:57:04;;;;;;;15.00;7.18;;;;;;;14.22;64.98;101058.00;7631957;32;40191;-73
2022/10/07 05:01:20;;;;;;;12.63;7.25;;;;;;;14.30;64.57;101058.56;7643225;32;40005;-72
2022/10/07 05:05:39;;;;;;;13.50;6.90;;;;;;;14.33;64.43;101047.06;7632000;32;37688;-73
2022/10/07 05:09:55;;;;;;;18.33;7.72;;;;;;;14.40;64.40;101053.13;7632176;32;37904;-72
2022/10/07 05:14:11;;;;;;;14.05;7.95;;;;;;;14.22;64.91;101055.25;7631927;32;39392;-72
2022/10/07 05:18:28;;;;;;;12.65;7.85;;;;;;;13.93;66.00;101053.97;7631780;32;40766;-73
2022/10/07 05:22:44;;;;;;;14.18;7.57;;;;;;;14.09;65.74;101056.56;7631764;32;37627;-73
2022/10/07 05:27:00;;;;;;;14.23;7.32;;;;;;;14.25;65.62;101057.47;7631801;32;37608;-72
2022/10/07 05:31:17;;;;;;;14.68;7.22;;;;;;;14.52;64.85;101061.16;7631343;32;39374;-73
2022/10/07 05:35:33;;;;;;;15.05;7.90;;;;;;;14.23;66.23;101061.56;7631437;32;40911;-72
2022/10/07 05:39:49;;;;;;;11.95;7.45;;;;;;;14.37;65.78;101064.66;7631439;32;38052;-73
2022/10/07 05:44:05;;;;;;;13.77;7.43;;;;;;;14.48;65.35;101063.63;7631429;32;37469;-73
2022/10/07 05:48:21;;;;;;;14.82;7.68;;;;;;;14.37;65.71;101062.75;7631328;32;40174;-73
2022/10/07 05:52:37;;;;;;;11.20;6.85;;;;;;;14.36;66.11;101065.75;7631352;32;40028;-76
2022/10/07 05:56:53;;;;;;;11.18;6.25;;;;;;;14.96;67.01;101064.37;7630970;32;37909;-76
2022/10/07 06:01:20;;;;;;;11.95;5.97;;;;;;;15.22;68.51;101064.44;7630877;32;37111;-78
2022/10/07 06:05:37;;;;;;;11.77;6.40;;;;;;;15.70;66.40;101066.97;7631005;32;39347;-79
2022/10/07 06:14:27;;;;;;;12.10;6.50;;;;;;;15.99;62.01;101061.75;7630754;32;37904;-73
2022/10/07 06:18:44;;;;;;;11.02;6.65;;;;;;;15.97;61.63;101061.22;7630513;32;37949;-73
2022/10/07 06:23:00;;;;;;;22.48;6.35;;;;;;;16.11;61.40;101073.28;7630640;32;39073;-74
2022/10/07 06:27:16;;;;;;;11.38;5.95;;;;;;;16.19;61.23;101060.06;7613006;32;40572;-74
2022/10/07 06:31:33;;;;;;;10.45;5.97;;;;;;;16.26;61.41;101068.84;7603972;32;38103;-74
2022/10/07 06:35:49;;;;;;;16.05;6.70;;;;;;;16.33;60.81;101070.22;7603919;32;37209;-73
2022/10/07 06:40:05;;;;;;;11.88;6.22;;;;;;;16.34;60.40;101060.84;7603932;32;39570;-74
2022/10/07 06:44:21;;;;;;;12.00;6.70;;;;;;;16.66;60.00;101056.06;7607228;32;40052;-74
2022/10/07 06:48:41;;;;;;;13.48;7.10;;;;;;;16.61;60.50;101054.16;7607328;32;38046;-73
2022/10/07 06:52:57;;;;;;;16.45;6.57;;;;;;;16.44;61.69;101056.44;7607448;32;37223;-74
2022/10/07 06:57:13;;;;;;;16.33;6.25;;;;;;;16.68;61.42;101051.94;7607259;32;39611;-74
2022/10/07 07:01:49;;;;;;;9.40;5.35;;;;;;;16.81;61.50;101061.50;7606900;32;40349;-73
2022/10/07 07:06:07;;;;;;;7.70;5.05;;;;;;;17.14;59.80;101056.38;7607092;32;38136;-74
2022/10/07 07:10:23;;;;;;;9.20;5.25;;;;;;;17.60;58.93;101058.81;7618137;32;37505;-74
2022/10/07 07:14:39;;;;;;;8.48;4.70;;;;;;;17.78;58.53;101056.47;7607195;32;39419;-74
2022/10/07 07:18:58;;;;;;;8.82;4.78;;;;;;;18.14;57.39;101050.63;7606984;32;39972;-73
2022/10/07 07:23:14;;;;;;;12.13;5.00;;;;;;;18.33;56.37;101046.03;7606955;32;38019;-73
2022/10/07 07:27:31;;;;;;;9.07;4.60;;;;;;;18.38;56.64;101051.50;7606890;32;38107;-74
2022/10/07 07:31:49;;;;;;;10.88;5.10;;;;;;;18.64;55.93;101042.88;7606938;32;39518;-73
2022/10/07 07:36:16;;;;;;;9.43;4.93;;;;;;;19.01;54.92;101049.59;7606803;32;39907;-73
2022/10/07 07:40:36;;;;;;;8.80;5.05;;;;;;;18.97;54.50;101044.97;7617181;32;38518;-74
2022/10/07 07:44:54;;;;;;;6.90;4.45;;;;;;;19.33;53.85;101042.50;7606717;32;38249;-74
2022/10/07 07:49:11;;;;;;;8.93;5.03;;;;;;;19.39;53.32;101049.59;7606624;32;39488;-74
2022/10/07 07:53:27;;;;;;;13.65;6.05;;;;;;;19.58;53.17;101046.00;7606746;32;40135;-74
2022/10/07 07:57:43;;;;;;;11.48;5.60;;;;;;;19.36;54.19;101047.44;7606544;32;38764;-74
2022/10/07 08:02:01;;;;;;;8.02;5.20;;;;;;;19.18;53.52;101042.72;7606395;32;37883;-73
2022/10/07 08:06:19;;;;;;;7.68;4.47;;;;;;;19.25;53.95;101045.97;7606680;32;39402;-73
2022/10/07 08:10:35;;;;;;;9.88;4.78;;;;;;;19.78;53.33;101042.91;7606584;32;39117;-73
2022/10/07 08:14:52;;;;;;;6.25;4.05;;;;;;;19.97;51.89;101033.69;7606440;32;37990;-73
2022/10/07 08:19:10;;;;;;;12.30;4.60;;;;;;;20.31;51.14;101025.03;7606463;32;37871;-72
2022/10/07 08:23:28;;;;;;;11.38;4.37;;;;;;;20.45;50.45;101023.09;7606355;32;39290;-73
2022/10/07 08:27:44;;;;;;;7.87;4.68;;;;;;;20.68;50.52;101019.59;7606434;32;38955;-73
2022/10/07 08:32:00;;;;;;;9.13;4.93;;;;;;;19.81;53.12;101022.91;7606238;32;37934;-73
2022/10/07 08:36:20;;;;;;;9.05;5.60;;;;;;;19.24;54.67;101016.66;7606305;32;37492;-73
2022/10/07 08:40:44;;;;;;;9.60;4.20;;;;;;;20.15;53.84;101004.31;7605892;32;39907;-72
2022/10/07 08:45:00;;;;;;;7.60;4.28;;;;;;;20.29;50.96;101001.56;7606040;32;39703;-72
2022/10/07 08:49:23;;;;;;;10.63;3.85;;;;;;;21.03;49.48;100992.22;7616132;32;37590;-73
2022/10/07 08:53:39;;;;;;;13.00;5.27;;;;;;;21.58;47.92;100992.00;7605645;32;37179;-72
2022/10/07 08:58:33;;;;;;;6.55;3.70;;;;;;;21.68;46.50;100983.41;7605891;32;39198;-72
2022/10/07 09:03:15;;;;;;;10.93;4.32;;;;;;;22.05;46.35;100983.25;7605826;32;39873;-73
2022/10/07 09:07:46;;;;;;;4.85;3.20;;;;;;;22.29;45.00;100982.87;7605609;32;38805;-72
2022/10/07 09:12:06;;;;;;;5.85;3.10;;;;;;;22.63;43.49;100981.34;7606114;32;37167;-73
2022/10/07 09:16:36;;;;;;;6.53;3.70;;;;;;;22.85;42.72;100978.41;7616523;32;38988;-73
2022/10/07 09:20:54;;;;;;;6.72;3.65;;;;;;;23.30;42.66;100980.06;7615632;32;40861;-73
2022/10/07 09:25:10;;;;;;;7.15;3.83;;;;;;;23.23;41.44;100966.66;7605646;32;37312;-73
2022/10/07 09:29:28;;;;;;;6.80;3.70;;;;;;;23.53;41.62;100963.16;7605792;32;36751;-73
2022/10/07 09:33:48;;;;;;;7.28;3.20;;;;;;;23.30;41.20;100965.31;7605718;32;39378;-73
2022/10/07 09:38:08;;;;;;;5.03;3.25;;;;;;;23.61;41.41;100946.44;7605504;32;40016;-73
2022/10/07 09:42:32;;;;;;;4.28;3.00;;;;;;;23.51;40.79;100957.09;7616042;32;38557;-73
2022/10/07 09:46:56;;;;;;;5.40;3.00;;;;;;;24.31;41.17;100940.56;7605383;32;36821;-72
2022/10/07 09:51:25;;;;;;;11.27;3.20;;;;;;;24.47;39.46;100938.00;7605451;32;39344;-73
2022/10/07 09:55:42;;;;;;;5.57;3.00;;;;;;;24.72;38.62;100932.63;7605114;32;40735;-72
2022/10/07 10:00:29;;;;;;;5.07;2.90;;;;;;;24.65;38.96;100919.22;7604933;32;37628;-73
2022/10/07 10:04:52;;;;;;;4.57;2.50;;;;;;;24.68;39.50;100912.97;7598779;32;38130;-73
2022/10/07 10:09:10;;;;;;;6.82;2.70;;;;;;;25.12;38.16;100910.59;7616118;32;39081;-72
2022/10/07 10:13:35;;;;;;;4.72;2.80;;;;;;;25.37;37.58;100905.13;7615633;32;39576;-73
2022/10/07 10:17:51;;;;;;;5.28;2.72;;;;;;;25.08;36.58;100908.84;7606296;32;38780;-73
2022/10/07 10:22:22;;;;;;;5.72;2.92;;;;;;;25.44;37.97;100899.78;7618975;32;37023;-73
2022/10/07 10:26:54;;;;;;;7.32;2.90;;;;;;;25.44;37.69;100888.63;7617732;32;39353;-73
2022/10/07 10:31:40;;;;;;;8.45;2.75;;;;;;;25.56;36.65;100885.03;7618442;32;40558;-73
2022/10/07 10:36:32;;;;;;;4.55;2.15;;;;;;;26.28;35.93;100887.34;7607298;32;37942;-74
2022/10/07 10:41:02;;;;;;;3.53;2.42;;;;;;;26.81;36.21;100878.16;7606227;32;37871;-74
2022/10/07 10:45:39;;;;;;;5.47;2.42;;;;;;;26.58;34.82;100868.31;7607462;32;39737;-73
2022/10/07 10:50:22;;;;;;;3.95;2.28;;;;;;;26.95;34.02;100864.56;7607337;32;40862;-73
2022/10/07 10:55:02;;;;;;;4.57;2.60;;;;;;;27.22;33.05;100846.09;7617715;32;38383;-73
2022/10/07 10:59:27;;;;;;;4.97;2.35;;;;;;;27.61;34.35;100840.69;7607357;32;37000;-75
2022/10/07 11:04:21;;;;;;;6.78;3.00;;;;;;;27.90;32.48;100833.00;7607202;32;39296;-73
2022/10/07 11:08:37;;;;;;;4.37;2.47;;;;;;;27.37;33.61;100830.50;7607347;32;40792;-73
2022/10/07 11:13:19;;;;;;;7.07;3.25;;;;;;;27.74;32.34;100810.63;7606964;32;37775;-72
2022/10/07 11:17:36;;;;;;;4.22;2.45;;;;;;;27.90;31.66;100814.19;7606896;32;37941;-72
2022/10/07 11:21:55;;;;;;;4.53;2.70;;;;;;;28.28;31.75;100795.00;7607015;32;38969;-73
2022/10/07 11:26:19;;;;;;;4.32;2.55;;;;;;;28.40;32.89;100791.25;7617617;32;40902;-72
2022/10/07 11:30:43;;;;;;;5.68;2.70;;;;;;;28.73;30.97;100771.09;7617154;32;37875;-73
2022/10/07 11:35:24;;;;;;;4.22;2.25;;;;;;;28.64;29.72;100773.34;7617270;32;38163;-73
2022/10/07 11:39:40;;;;;;;3.97;2.25;;;;;;;29.07;29.37;100767.69;7606730;32;38945;-72
2022/10/07 11:44:02;;;;;;;4.45;2.25;;;;;;;29.12;29.60;100754.16;7606725;32;39575;-73
2022/10/07 11:48:39;;;;;;;6.85;2.40;;;;;;;29.25;29.02;100751.97;7625886;32;38021;-72
2022/10/07 11:53:01;;;;;;;7.25;2.33;;;;;;;28.86;30.75;100751.31;7615134;32;36763;-73
2022/10/07 11:57:23;;;;;;;4.80;2.30;;;;;;;29.18;30.34;100746.25;7617562;32;39415;-73
2022/10/07 12:01:51;;;;;;;4.68;2.37;;;;;;;29.35;29.94;100739.31;7615717;32;39964;-73
2022/10/07 12:06:12;;;;;;;7.80;2.78;;;;;;;29.68;28.63;100729.34;7606517;32;38073;-74
2022/10/07 12:10:31;;;;;;;4.15;2.60;;;;;;;29.57;28.02;100724.38;7605732;32;37106;-73
2022/10/07 12:14:57;;;;;;;17.05;2.55;;;;;;;29.47;27.63;100725.03;7617333;32;40068;-69
2022/10/07 12:19:15;;;;;;;4.53;2.25;;;;;;;29.25;28.49;100711.87;7615523;32;40086;-74
2022/10/07 12:23:39;;;;;;;6.03;2.50;;;;;;;29.96;28.37;100700.88;7606060;32;38059;-74
2022/10/07 12:27:55;;;;;;;5.35;2.45;;;;;;;30.11;27.57;100690.59;7617441;32;36192;-74
2022/10/07 12:32:49;;;;;;;4.95;2.70;;;;;;;29.44;27.14;100692.09;7616604;32;39461;-73
2022/10/07 12:37:41;;;;;;;5.97;2.50;;;;;;;28.64;30.16;100687.19;7606219;32;40820;-74
2022/10/07 12:41:58;;;;;;;5.80;2.62;;;;;;;28.89;29.99;100683.19;7604784;32;38058;-74
2022/10/07 12:46:18;;;;;;;8.32;2.60;;;;;;;29.18;28.93;100679.69;7605927;32;37577;-74
2022/10/07 12:50:34;;;;;;;5.93;2.90;;;;;;;28.56;28.95;100677.03;7616294;32;40076;-74
2022/10/07 12:55:01;;;;;;;6.15;2.53;;;;;;;28.84;29.99;100667.50;7616818;32;40462;-74
2022/10/07 12:59:49;;;;;;;6.25;3.30;;;;;;;28.85;29.38;100663.47;7616369;32;38076;-74
2022/10/07 13:04:18;;;;;;;4.68;2.58;;;;;;;28.64;30.61;100666.75;7613981;32;37601;-74
2022/10/07 13:08:57;;;;;;;6.90;3.30;;;;;;;29.30;29.57;100656.19;7605612;32;39088;-74
2022/10/07 13:13:37;;;;;;;4.53;2.80;;;;;;;29.23;29.03;100653.28;7605401;32;39987;-74
2022/10/07 13:17:54;;;;;;;4.35;2.45;;;;;;;29.55;30.18;100648.13;7605211;32;38806;-74
2022/10/07 13:22:15;;;;;;;4.47;2.60;;;;;;;29.64;29.03;100633.00;7605340;32;36818;-74
2022/10/07 13:26:31;;;;;;;6.72;2.62;;;;;;;29.58;29.47;100635.34;7605407;32;39908;-74
2022/10/07 13:30:49;;;;;;;6.87;2.72;;;;;;;29.06;29.46;100625.72;7604954;32;40030;-74
2022/10/07 13:35:37;;;;;;;6.82;2.75;;;;;;;29.40;30.12;100612.59;7605440;32;37727;-74
2022/10/07 13:40:18;;;;;;;7.03;2.78;;;;;;;29.07;30.09;100611.31;7591912;32;36826;-74
2022/10/07 13:44:34;;;;;;;4.43;2.28;;;;;;;29.78;29.53;100607.91;7605016;32;38738;-75
2022/10/07 13:48:53;;;;;;;4.65;2.60;;;;;;;29.77;27.84;100597.88;7604278;32;40487;-75
2022/10/07 13:53:29;;;;;;;5.12;2.55;;;;;;;29.27;29.39;100599.97;7614922;32;38787;-75
2022/10/07 13:57:46;;;;;;;6.72;2.80;;;;;;;29.32;28.19;100594.88;7604500;32;36971;-74
2022/10/07 14:02:03;;;;;;;4.97;2.62;;;;;;;28.57;30.11;100588.09;7615090;32;39015;-74
2022/10/07 14:06:54;;;;;;;5.32;2.70;;;;;;;28.44;30.27;100577.03;7604610;32;40970;-74
2022/10/07 14:11:20;;;;;;;5.40;2.58;;;;;;;28.46;30.21;100577.47;7604286;32;37813;-74
2022/10/07 14:15:41;;;;;;;7.18;3.08;;;;;;;28.09;31.05;100566.78;7614746;32;37482;-74
2022/10/07 14:20:04;;;;;;;7.00;2.70;;;;;;;28.15;30.98;100569.28;7614868;32;39266;-74
2022/10/07 14:24:20;;;;;;;;;;;;;;;28.31;29.63;100564.38;7614720;32;40980;-74
2022/10/07 14:28:40;;;;;;;4.62;2.85;;;;;;;28.16;30.58;100557.72;7604310;32;39103;-74
2022/10/07 14:37:43;;;;;;;4.78;2.67;;;;;;;27.64;30.56;100548.72;7603691;32;39547;-74
2022/10/07 14:42:00;;;;;;;5.37;2.33;;;;;;;27.78;30.47;100555.78;7604024;32;40809;-74
2022/10/07 14:46:22;;;;;;;4.72;2.80;;;;;;;27.49;30.38;100547.62;7603228;32;37822;-74
2022/10/07 14:50:38;;;;;;;7.60;3.08;;;;;;;27.31;31.89;100540.84;7603619;32;37382;-74
2022/10/07 14:54:56;;;;;;;6.87;2.70;;;;;;;27.33;31.37;100533.69;7614279;32;39078;-74
2022/10/07 14:59:15;;;;;;;9.23;2.70;;;;;;;26.80;33.63;100538.87;7603072;32;40548;-74
2022/10/07 15:03:32;;;;;;;18.60;9.60;;;;;;;26.64;33.62;100526.94;7604964;32;38034;-74
2022/10/07 15:07:49;;;;;;;7.32;3.10;;;;;;;26.34;34.54;100527.38;7606654;32;36801;-73
2022/10/07 15:12:05;;;;;;;7.90;3.00;;;;;;;26.94;32.50;100525.25;7607202;32;40131;-74
2022/10/07 15:16:25;;;;;;;6.20;3.28;;;;;;;26.63;34.07;100528.09;7606407;32;39982;-74
2022/10/07 15:20:41;;;;;;;13.68;3.62;;;;;;;26.19;33.74;100529.78;7617701;32;38735;-74
2022/10/07 15:24:57;;;;;;;5.55;2.83;;;;;;;25.78;34.94;100523.50;7606479;32;37210;-74
2022/10/07 15:29:14;;;;;;;4.90;3.22;;;;;;;25.62;35.08;100523.47;7606539;32;39237;-74
2022/10/07 15:33:31;;;;;;;8.52;3.42;;;;;;;25.12;36.37;100528.37;7623318;32;40005;-74
2022/10/07 15:37:47;;;;;;;6.40;3.40;;;;;;;24.99;36.37;100526.81;7628727;32;36658;-74
2022/10/07 15:42:07;;;;;;;6.75;2.75;;;;;;;25.06;36.31;100528.97;7629627;32;37793;-77
2022/10/07 15:46:23;;;;;;;7.50;3.75;;;;;;;24.67;38.64;100525.81;7643270;32;40213;-76
2022/10/07 15:50:46;;;;;;;11.07;3.90;;;;;;;24.67;37.39;100523.81;7631739;32;40791;-73
2022/10/07 15:55:04;;;;;;;;;;;;;;;24.46;38.10;100532.28;7641856;32;38492;-74
2022/10/07 15:59:22;;;;;;;7.57;3.78;;;;;;;24.56;39.35;100531.03;7632815;32;36733;-74
2022/10/07 16:03:42;;;;;;;11.05;5.28;;;;;;;24.21;39.32;100528.66;7631811;32;39037;-73
2022/10/07 16:08:01;;;;;;;7.43;3.55;;;;;;;23.70;41.13;100528.87;7632480;32;39998;-73
2022/10/07 16:12:17;;;;;;;7.80;3.87;;;;;;;23.46;42.13;100535.16;7632386;32;37996;-73
2022/10/07 16:16:33;;;;;;;13.18;4.00;;;;;;;23.01;43.52;100541.38;7631457;32;36955;-73
2022/10/07 16:20:50;;;;;;;8.98;3.67;;;;;;;22.64;44.34;100538.31;7632079;32;40006;-73
2022/10/07 16:25:06;;;;;;;7.90;3.30;;;;;;;22.42;44.73;100540.22;7632490;32;40808;-73
2022/10/07 16:33:57;;;;;;;7.68;3.65;;;;;;;22.06;45.52;100527.59;7632179;32;37793;-73
2022/10/07 16:38:13;;;;;;;8.85;3.40;;;;;;;21.74;46.38;100535.31;7632142;32;39361;-72
2022/10/07 16:42:29;;;;;;;6.55;3.28;;;;;;;21.64;46.53;100532.88;7632088;32;39972;-73
2022/10/07 16:46:46;;;;;;;8.93;3.83;;;;;;;21.39;47.26;100540.06;7632188;32;38790;-72
2022/10/07 16:51:02;;;;;;;8.88;4.00;;;;;;;21.38;47.28;100539.25;7631824;32;38149;-73
2022/10/07 16:55:18;;;;;;;10.73;3.50;;;;;;;21.17;47.91;100538.28;7615603;32;40267;-73
2022/10/07 16:59:34;;;;;;;7.22;3.70;;;;;;;20.95;48.54;100545.56;7604574;32;40005;-73
2022/10/07 17:03:51;;;;;;;9.45;4.15;;;;;;;20.68;49.36;100549.44;7623805;32;37640;-73
2022/10/07 17:08:09;;;;;;;9.68;4.10;;;;;;;20.70;49.15;100554.66;7631628;32;38166;-73
2022/10/07 17:12:25;;;;;;;11.05;3.97;;;;;;;20.78;49.05;100540.84;7631302;32;40026;-72
2022/10/07 17:16:44;;;;;;;6.25;3.62;;;;;;;20.69;49.10;100544.72;7630878;32;39856;-74
2022/10/07 17:21:00;;;;;;;9.52;4.18;;;;;;;20.67;49.29;100547.78;7627287;32;37984;-72
2022/10/07 17:25:16;;;;;;;12.65;4.12;;;;;;;20.48;49.91;100550.00;7608002;32;38571;-72
2022/10/07 17:29:33;;;;;;;11.23;4.12;;;;;;;20.16;50.73;100533.41;7619441;32;39875;-73
2022/10/07 17:33:49;;;;;;;9.25;4.10;;;;;;;20.14;50.94;100537.63;7618587;32;39789;-72
2022/10/07 17:38:05;;;;;;;11.93;4.22;;;;;;;20.01;51.34;100540.16;7624367;32;38849;-73
2022/10/07 17:42:22;;;;;;;6.05;3.80;;;;;;;19.84;51.78;100543.62;7605575;32;38019;-73
2022/10/07 17:46:39;;;;;;;8.55;3.92;;;;;;;19.61;52.26;100537.28;7604377;32;40173;-75
2022/10/07 17:51:01;;;;;;;11.10;3.90;;;;;;;19.82;51.64;100534.84;7611352;32;40075;-74
2022/10/07 17:55:17;;;;;;;12.83;4.97;;;;;;;19.77;51.65;100532.22;7602946;32;38644;-73
2022/10/07 17:59:33;;;;;;;30.12;13.48;;;;;;;19.52;52.23;100530.84;7620802;32;37908;-72
2022/10/07 18:03:51;;;;;;;20.92;10.55;;;;;;;19.65;51.79;100529.16;7630666;32;39379;-73
2022/10/07 18:08:07;;;;;;;19.02;10.20;;;;;;;19.80;51.12;100536.28;7629872;32;41096;-73
2022/10/07 18:16:58;;;;;;;12.23;5.35;;;;;;;19.02;53.51;100531.72;7630583;32;36911;-74
2022/10/07 18:21:15;;;;;;;16.48;5.95;;;;;;;18.86;53.94;100534.03;7630363;32;38993;-75
2022/10/07 18:25:32;;;;;;;8.93;5.35;;;;;;;18.69;54.39;100531.84;7630573;32;40529;-74
2022/10/07 18:29:48;;;;;;;9.85;5.22;;;;;;;18.93;53.76;100525.31;7629979;32;37703;-74
2022/10/07 18:34:05;;;;;;;12.65;5.57;;;;;;;18.39;55.35;100527.78;7612287;32;37219;-73
2022/10/07 18:38:21;;;;;;;15.45;6.85;;;;;;;18.52;55.11;100523.38;7605087;32;40194;-74
2022/10/07 18:42:37;;;;;;;15.02;7.30;;;;;;;18.82;53.96;100529.41;7606307;32;39920;-73
2022/10/07 18:46:54;;;;;;;12.37;5.10;;;;;;;18.88;53.52;100533.72;7606880;32;38745;-73
2022/10/07 18:51:11;;;;;;;13.80;5.10;;;;;;;18.42;54.67;100516.16;7606641;32;38201;-73
2022/10/07 18:55:27;;;;;;;10.60;4.85;;;;;;;18.48;54.52;100525.13;7607530;32;40124;-73
2022/10/07 18:59:43;;;;;;;10.38;5.18;;;;;;;18.45;54.62;100523.78;7606545;32;39928;-72
2022/10/07 19:04:01;;;;;;;9.57;5.18;;;;;;;18.47;54.69;100529.00;7606520;32;37368;-73
2022/10/07 19:08:18;;;;;;;12.77;5.68;;;;;;;18.14;56.00;100523.56;7606863;32;37886;-72
2022/10/07 19:17:09;;;;;;;14.82;6.15;;;;;;;18.13;56.05;100524.72;7606728;32;40868;-73
2022/10/07 19:21:26;;;;;;;14.90;6.37;;;;;;;18.11;55.98;100521.41;7604880;32;38774;-73
2022/10/07 19:25:45;;;;;;;12.88;5.62;;;;;;;18.18;55.61;100516.34;7587179;32;37226;-73
2022/10/07 19:30:01;;;;;;;13.55;6.20;;;;;;;18.31;55.22;100518.28;7604320;32;39472;-74
2022/10/07 19:34:20;;;;;;;11.20;6.10;;;;;;;18.16;55.73;100513.88;7606666;32;39995;-74
2022/10/07 19:38:44;;;;;;;11.73;6.20;;;;;;;17.99;56.12;100525.50;7606582;32;38148;-73
2022/10/07 19:43:00;;;;;;;11.48;6.00;;;;;;;18.09;55.81;100518.16;7606755;32;36816;-73
2022/10/07 19:47:17;;;;;;;11.65;6.45;;;;;;;17.63;57.34;100523.34;7606555;32;39821;-73
2022/10/07 19:51:36;;;;;;;11.07;5.90;;;;;;;17.55;57.36;100520.44;7605779;32;38683;-73
2022/10/07 19:55:52;;;;;;;15.40;7.47;;;;;;;17.62;57.32;100529.94;7606686;32;36937;-73
2022/10/07 20:00:09;;;;;;;13.68;7.85;;;;;;;17.40;58.76;100529.78;7599075;32;239991;-74
2022/10/07 20:04:25;;;;;;;15.70;7.43;;;;;;;17.18;59.32;100531.22;7605945;32;39442;-73
2022/10/07 20:08:43;;;;;;;13.88;6.97;;;;;;;17.16;58.63;100522.44;7606653;32;39993;-73
2022/10/07 20:12:59;;;;;;;14.68;7.62;;;;;;;16.88;59.10;100526.94;7606443;32;38016;-71
2022/10/07 20:17:16;;;;;;;13.70;6.30;;;;;;;16.75;59.60;100520.22;7606303;32;38053;-71
2022/10/07 20:21:34;;;;;;;16.42;7.47;;;;;;;16.93;58.78;100523.31;7606533;32;39019;-73
2022/10/07 20:25:51;;;;;;;12.45;7.10;;;;;;;16.77;59.04;100526.22;7606537;32;39902;-72
2022/10/07 20:30:11;;;;;;;14.30;6.95;;;;;;;16.74;58.83;100524.06;7606491;32;38624;-73